Página principal
METAR-TAF:

METAR-TAF

Aeroportos :

Metlakatla, Alasca, Estados Unidos

latitude: 55-07-52N, longitude: 131-34-41W, altura: 0 m

Observação actual do tempo

O boletim foi feito há 29 minutos, às 07:56 UTC
Vento calmo
Temperatura 9°C
Humidade 66%
Pressão 1027 hPa
Visibilidade: 16.1 km
Céu limpo

METAR: PAMM 190756Z AUTO 00000KT 10SM CLR 09/03 A3033 RMK AO2 SLP365 T00890033 401560067 $

Hora: 00:25 (08:25 UTC)


TAF: em falta

Observações e previsões do tempo de mais de 4000 aeroportos (mensagens METAR e TAF).

As estações disponíveis são os pontos amarelos e vermelhos sobre o mapa.

Mova o rato sobre o mapa para ver o nome da estação.

Depois clique no ponto para visualizar as observações e previsões meteorológicas.

Para alterar o mapa : clique nos botões verdes com uma cruz preta para aumentar o zoom; no botão verde com uma pitada de zoom; ou nas setas verdes para mapas adjacentes.


METAR-TAF: